sensor_id;sensor_type;location;lat;lon;timestamp;temperature;humidity
2621;DHT22;1320;48.128;11.592;2023-04-16T00:02:18;7.20;99.90
2621;DHT22;1320;48.128;11.592;2023-04-16T00:04:44;7.10;99.90
2621;DHT22;1320;48.128;11.592;2023-04-16T00:07:10;7.10;99.90
2621;DHT22;1320;48.128;11.592;2023-04-16T00:09:35;7.00;99.90
2621;DHT22;1320;48.128;11.592;2023-04-16T00:12:01;7.00;99.90
2621;DHT22;1320;48.128;11.592;2023-04-16T00:14:27;7.00;99.90
2621;DHT22;1320;48.128;11.592;2023-04-16T00:16:53;7.10;99.90
2621;DHT22;1320;48.128;11.592;2023-04-16T00:19:19;7.00;99.90
2621;DHT22;1320;48.128;11.592;2023-04-16T00:21:44;7.00;99.90
2621;DHT22;1320;48.128;11.592;2023-04-16T00:24:10;7.00;99.90
2621;DHT22;1320;48.128;11.592;2023-04-16T00:26:36;7.00;99.90
2621;DHT22;1320;48.128;11.592;2023-04-16T00:29:01;6.90;99.90
2621;DHT22;1320;48.128;11.592;2023-04-16T00:31:28;6.90;99.90
2621;DHT22;1320;48.128;11.592;2023-04-16T00:33:54;6.80;99.90
2621;DHT22;1320;48.128;11.592;2023-04-16T00:36:21;6.80;99.90
2621;DHT22;1320;48.128;11.592;2023-04-16T00:38:47;6.80;99.90
2621;DHT22;1320;48.128;11.592;2023-04-16T00:41:13;6.80;99.90
2621;DHT22;1320;48.128;11.592;2023-04-16T00:43:38;6.90;99.90
2621;DHT22;1320;48.128;11.592;2023-04-16T00:46:04;6.90;99.90
2621;DHT22;1320;48.128;11.592;2023-04-16T00:48:34;6.90;99.90
2621;DHT22;1320;48.128;11.592;2023-04-16T00:51:03;7.00;99.90
2621;DHT22;1320;48.128;11.592;2023-04-16T00:53:29;7.00;99.90
2621;DHT22;1320;48.128;11.592;2023-04-16T00:55:55;7.00;99.90
2621;DHT22;1320;48.128;11.592;2023-04-16T00:58:22;7.00;99.90
2621;DHT22;1320;48.128;11.592;2023-04-16T01:00:48;7.00;99.90
2621;DHT22;1320;48.128;11.592;2023-04-16T01:03:13;7.00;99.90
2621;DHT22;1320;48.128;11.592;2023-04-16T01:05:40;7.00;99.90
2621;DHT22;1320;48.128;11.592;2023-04-16T01:08:05;7.00;99.90
2621;DHT22;1320;48.128;11.592;2023-04-16T01:10:31;7.00;99.90
2621;DHT22;1320;48.128;11.592;2023-04-16T01:12:57;7.00;99.90
2621;DHT22;1320;48.128;11.592;2023-04-16T01:15:22;7.00;99.90
2621;DHT22;1320;48.128;11.592;2023-04-16T01:17:48;7.00;99.90
2621;DHT22;1320;48.128;11.592;2023-04-16T01:20:14;7.00;99.90
2621;DHT22;1320;48.128;11.592;2023-04-16T01:22:39;7.00;99.90
2621;DHT22;1320;48.128;11.592;2023-04-16T01:25:05;6.90;99.90
2621;DHT22;1320;48.128;11.592;2023-04-16T01:27:31;6.90;99.90
2621;DHT22;1320;48.128;11.592;2023-04-16T01:29:57;6.90;99.90
2621;DHT22;1320;48.128;11.592;2023-04-16T01:32:22;6.90;99.90
2621;DHT22;1320;48.128;11.592;2023-04-16T01:38:10;7.00;99.90
2621;DHT22;1320;48.128;11.592;2023-04-16T01:40:36;6.90;99.90
2621;DHT22;1320;48.128;11.592;2023-04-16T01:43:02;6.90;99.90
2621;DHT22;1320;48.128;11.592;2023-04-16T01:45:30;6.90;99.90
2621;DHT22;1320;48.128;11.592;2023-04-16T01:47:55;6.90;99.90
2621;DHT22;1320;48.128;11.592;2023-04-16T01:50:22;6.90;99.90
2621;DHT22;1320;48.128;11.592;2023-04-16T01:52:48;6.90;99.90
2621;DHT22;1320;48.128;11.592;2023-04-16T01:55:13;6.90;99.90
2621;DHT22;1320;48.128;11.592;2023-04-16T01:57:39;6.90;99.90
2621;DHT22;1320;48.128;11.592;2023-04-16T02:00:05;7.00;99.90
2621;DHT22;1320;48.128;11.592;2023-04-16T02:02:33;7.00;99.90
2621;DHT22;1320;48.128;11.592;2023-04-16T02:04:59;7.10;99.90
2621;DHT22;1320;48.128;11.592;2023-04-16T02:07:25;7.10;99.90
2621;DHT22;1320;48.128;11.592;2023-04-16T02:09:52;7.10;99.90
2621;DHT22;1320;48.128;11.592;2023-04-16T02:12:18;7.20;99.90
2621;DHT22;1320;48.128;11.592;2023-04-16T02:18:06;7.20;99.90
2621;DHT22;1320;48.128;11.592;2023-04-16T02:20:32;7.20;99.90
2621;DHT22;1320;48.128;11.592;2023-04-16T02:22:58;7.20;99.90
2621;DHT22;1320;48.128;11.592;2023-04-16T02:25:23;7.20;99.90
2621;DHT22;1320;48.128;11.592;2023-04-16T02:27:49;7.10;99.90
2621;DHT22;1320;48.128;11.592;2023-04-16T02:30:15;7.20;99.90
2621;DHT22;1320;48.128;11.592;2023-04-16T02:32:42;7.20;99.90
2621;DHT22;1320;48.128;11.592;2023-04-16T02:35:07;7.20;99.90
2621;DHT22;1320;48.128;11.592;2023-04-16T02:37:33;7.20;99.90
2621;DHT22;1320;48.128;11.592;2023-04-16T02:39:58;7.20;99.90
2621;DHT22;1320;48.128;11.592;2023-04-16T02:42:24;7.20;99.90
2621;DHT22;1320;48.128;11.592;2023-04-16T02:44:50;7.20;99.90
2621;DHT22;1320;48.128;11.592;2023-04-16T02:47:15;7.20;99.90
2621;DHT22;1320;48.128;11.592;2023-04-16T02:49:41;7.20;99.90
2621;DHT22;1320;48.128;11.592;2023-04-16T02:52:07;7.10;99.90
2621;DHT22;1320;48.128;11.592;2023-04-16T02:54:32;7.10;99.90
2621;DHT22;1320;48.128;11.592;2023-04-16T02:56:58;7.10;99.90
2621;DHT22;1320;48.128;11.592;2023-04-16T02:59:23;7.10;99.90
2621;DHT22;1320;48.128;11.592;2023-04-16T03:01:50;7.10;99.90
2621;DHT22;1320;48.128;11.592;2023-04-16T03:04:15;7.10;99.90
2621;DHT22;1320;48.128;11.592;2023-04-16T03:06:41;7.10;99.90
2621;DHT22;1320;48.128;11.592;2023-04-16T03:09:06;7.10;99.90
2621;DHT22;1320;48.128;11.592;2023-04-16T03:11:32;7.10;99.90
2621;DHT22;1320;48.128;11.592;2023-04-16T03:17:20;7.20;99.90
2621;DHT22;1320;48.128;11.592;2023-04-16T03:19:46;7.20;99.90
2621;DHT22;1320;48.128;11.592;2023-04-16T03:22:11;7.20;99.90
2621;DHT22;1320;48.128;11.592;2023-04-16T03:24:37;7.20;99.90
2621;DHT22;1320;48.128;11.592;2023-04-16T03:27:03;7.20;99.90
2621;DHT22;1320;48.128;11.592;2023-04-16T03:29:28;7.10;99.90
2621;DHT22;1320;48.128;11.592;2023-04-16T03:31:54;7.20;99.90
2621;DHT22;1320;48.128;11.592;2023-04-16T03:34:20;7.20;99.90
2621;DHT22;1320;48.128;11.592;2023-04-16T03:36:45;7.20;99.90
2621;DHT22;1320;48.128;11.592;2023-04-16T03:39:11;7.30;99.90
2621;DHT22;1320;48.128;11.592;2023-04-16T03:41:36;7.30;99.90
2621;DHT22;1320;48.128;11.592;2023-04-16T03:44:02;7.20;99.90
2621;DHT22;1320;48.128;11.592;2023-04-16T03:46:28;7.20;99.90
2621;DHT22;1320;48.128;11.592;2023-04-16T03:48:53;7.20;99.90
2621;DHT22;1320;48.128;11.592;2023-04-16T03:51:19;7.20;99.90
2621;DHT22;1320;48.128;11.592;2023-04-16T03:53:45;7.20;99.90
2621;DHT22;1320;48.128;11.592;2023-04-16T03:56:10;7.10;99.90
2621;DHT22;1320;48.128;11.592;2023-04-16T03:58:36;7.10;99.90
2621;DHT22;1320;48.128;11.592;2023-04-16T04:01:02;7.10;99.90
2621;DHT22;1320;48.128;11.592;2023-04-16T04:03:27;7.10;99.90
2621;DHT22;1320;48.128;11.592;2023-04-16T04:05:53;7.20;99.90
2621;DHT22;1320;48.128;11.592;2023-04-16T04:08:18;7.20;99.90
2621;DHT22;1320;48.128;11.592;2023-04-16T04:10:45;7.20;99.90
2621;DHT22;1320;48.128;11.592;2023-04-16T04:13:10;7.20;99.90
2621;DHT22;1320;48.128;11.592;2023-04-16T04:15:36;7.20;99.90
2621;DHT22;1320;48.128;11.592;2023-04-16T04:18:01;7.20;99.90
2621;DHT22;1320;48.128;11.592;2023-04-16T04:20:27;7.30;99.90
2621;DHT22;1320;48.128;11.592;2023-04-16T04:22:53;7.30;99.90
2621;DHT22;1320;48.128;11.592;2023-04-16T04:25:18;7.30;99.90
2621;DHT22;1320;48.128;11.592;2023-04-16T04:27:44;7.30;99.90
2621;DHT22;1320;48.128;11.592;2023-04-16T04:30:10;7.20;99.90
2621;DHT22;1320;48.128;11.592;2023-04-16T04:32:36;7.20;99.90
2621;DHT22;1320;48.128;11.592;2023-04-16T04:35:02;7.20;99.90
2621;DHT22;1320;48.128;11.592;2023-04-16T04:37:28;7.10;99.90
2621;DHT22;1320;48.128;11.592;2023-04-16T04:39:54;7.10;99.90
2621;DHT22;1320;48.128;11.592;2023-04-16T04:42:20;7.20;99.90
2621;DHT22;1320;48.128;11.592;2023-04-16T04:44:46;7.20;99.90
2621;DHT22;1320;48.128;11.592;2023-04-16T04:47:13;7.20;99.90
2621;DHT22;1320;48.128;11.592;2023-04-16T04:49:39;7.20;99.90
2621;DHT22;1320;48.128;11.592;2023-04-16T04:52:05;7.10;99.90
2621;DHT22;1320;48.128;11.592;2023-04-16T04:57:53;7.20;99.90
2621;DHT22;1320;48.128;11.592;2023-04-16T05:00:18;7.20;99.90
2621;DHT22;1320;48.128;11.592;2023-04-16T05:02:44;7.30;99.90
2621;DHT22;1320;48.128;11.592;2023-04-16T05:05:10;7.30;99.90
2621;DHT22;1320;48.128;11.592;2023-04-16T05:07:35;7.40;99.90
2621;DHT22;1320;48.128;11.592;2023-04-16T05:10:01;7.40;99.90
2621;DHT22;1320;48.128;11.592;2023-04-16T05:12:26;7.30;99.90
2621;DHT22;1320;48.128;11.592;2023-04-16T05:14:52;7.30;99.90
2621;DHT22;1320;48.128;11.592;2023-04-16T05:17:18;7.30;99.90
2621;DHT22;1320;48.128;11.592;2023-04-16T05:19:43;7.30;99.90
2621;DHT22;1320;48.128;11.592;2023-04-16T05:22:09;7.40;99.90
2621;DHT22;1320;48.128;11.592;2023-04-16T05:27:57;7.40;99.90
2621;DHT22;1320;48.128;11.592;2023-04-16T05:30:22;7.40;99.90
2621;DHT22;1320;48.128;11.592;2023-04-16T05:32:48;7.40;99.90
2621;DHT22;1320;48.128;11.592;2023-04-16T05:35:14;7.30;99.90
2621;DHT22;1320;48.128;11.592;2023-04-16T05:37:39;7.40;99.90
2621;DHT22;1320;48.128;11.592;2023-04-16T05:40:05;7.30;99.90
2621;DHT22;1320;48.128;11.592;2023-04-16T05:42:31;7.30;99.90
2621;DHT22;1320;48.128;11.592;2023-04-16T05:44:57;7.30;99.90
2621;DHT22;1320;48.128;11.592;2023-04-16T05:47:23;7.20;99.90
2621;DHT22;1320;48.128;11.592;2023-04-16T05:49:49;7.30;99.90
2621;DHT22;1320;48.128;11.592;2023-04-16T05:52:14;7.30;99.90
2621;DHT22;1320;48.128;11.592;2023-04-16T05:54:40;7.30;99.90
2621;DHT22;1320;48.128;11.592;2023-04-16T05:57:06;7.30;99.90
2621;DHT22;1320;48.128;11.592;2023-04-16T05:59:31;7.30;99.90
2621;DHT22;1320;48.128;11.592;2023-04-16T06:01:57;7.30;99.90
2621;DHT22;1320;48.128;11.592;2023-04-16T06:04:23;7.30;99.90
2621;DHT22;1320;48.128;11.592;2023-04-16T06:06:48;7.40;99.90
2621;DHT22;1320;48.128;11.592;2023-04-16T06:09:14;7.40;99.90
2621;DHT22;1320;48.128;11.592;2023-04-16T06:11:40;7.40;99.90
2621;DHT22;1320;48.128;11.592;2023-04-16T06:14:05;7.40;99.90
2621;DHT22;1320;48.128;11.592;2023-04-16T06:16:31;7.50;99.90
2621;DHT22;1320;48.128;11.592;2023-04-16T06:18:57;7.50;99.90
2621;DHT22;1320;48.128;11.592;2023-04-16T06:21:22;7.50;99.90
2621;DHT22;1320;48.128;11.592;2023-04-16T06:23:48;7.60;99.90
2621;DHT22;1320;48.128;11.592;2023-04-16T06:26:14;7.60;99.90
2621;DHT22;1320;48.128;11.592;2023-04-16T06:28:39;7.60;99.90
2621;DHT22;1320;48.128;11.592;2023-04-16T06:31:05;7.60;99.90
2621;DHT22;1320;48.128;11.592;2023-04-16T06:33:31;7.60;99.90
2621;DHT22;1320;48.128;11.592;2023-04-16T06:35:56;7.70;99.90
2621;DHT22;1320;48.128;11.592;2023-04-16T06:38:22;7.70;99.90
2621;DHT22;1320;48.128;11.592;2023-04-16T06:40:47;7.70;99.90
2621;DHT22;1320;48.128;11.592;2023-04-16T06:43:14;7.80;99.90
2621;DHT22;1320;48.128;11.592;2023-04-16T06:45:40;7.80;99.90
2621;DHT22;1320;48.128;11.592;2023-04-16T06:48:05;7.90;99.90
2621;DHT22;1320;48.128;11.592;2023-04-16T06:50:31;8.00;99.90
2621;DHT22;1320;48.128;11.592;2023-04-16T06:52:57;8.00;99.90
2621;DHT22;1320;48.128;11.592;2023-04-16T06:55:22;8.00;99.90
2621;DHT22;1320;48.128;11.592;2023-04-16T06:57:48;8.00;99.90
2621;DHT22;1320;48.128;11.592;2023-04-16T07:00:14;8.00;99.90
2621;DHT22;1320;48.128;11.592;2023-04-16T07:02:39;8.00;99.90
2621;DHT22;1320;48.128;11.592;2023-04-16T07:05:05;8.00;99.90
2621;DHT22;1320;48.128;11.592;2023-04-16T07:07:31;8.10;99.90
2621;DHT22;1320;48.128;11.592;2023-04-16T07:09:58;8.10;99.90
2621;DHT22;1320;48.128;11.592;2023-04-16T07:12:23;8.20;99.90
2621;DHT22;1320;48.128;11.592;2023-04-16T07:20:38;8.30;99.90
2621;DHT22;1320;48.128;11.592;2023-04-16T07:23:03;8.50;99.90
2621;DHT22;1320;48.128;11.592;2023-04-16T07:25:29;8.50;99.90
2621;DHT22;1320;48.128;11.592;2023-04-16T07:27:55;8.60;99.90
2621;DHT22;1320;48.128;11.592;2023-04-16T07:30:21;8.70;99.90
2621;DHT22;1320;48.128;11.592;2023-04-16T07:32:46;8.80;99.90
2621;DHT22;1320;48.128;11.592;2023-04-16T07:35:12;8.70;99.90
2621;DHT22;1320;48.128;11.592;2023-04-16T07:37:37;8.70;99.90
2621;DHT22;1320;48.128;11.592;2023-04-16T07:40:03;8.70;99.90
2621;DHT22;1320;48.128;11.592;2023-04-16T07:42:29;8.70;99.90
2621;DHT22;1320;48.128;11.592;2023-04-16T07:44:55;8.60;99.90
2621;DHT22;1320;48.128;11.592;2023-04-16T07:47:20;8.60;99.90
2621;DHT22;1320;48.128;11.592;2023-04-16T07:49:48;8.60;99.90
2621;DHT22;1320;48.128;11.592;2023-04-16T07:52:14;8.60;99.90
2621;DHT22;1320;48.128;11.592;2023-04-16T07:54:40;8.60;99.90
2621;DHT22;1320;48.128;11.592;2023-04-16T07:57:05;8.60;99.90
2621;DHT22;1320;48.128;11.592;2023-04-16T07:59:31;8.60;99.90
2621;DHT22;1320;48.128;11.592;2023-04-16T08:01:57;8.60;99.90
2621;DHT22;1320;48.128;11.592;2023-04-16T08:04:22;8.60;99.90
2621;DHT22;1320;48.128;11.592;2023-04-16T08:06:51;8.60;99.90
2621;DHT22;1320;48.128;11.592;2023-04-16T08:09:22;8.60;99.90
2621;DHT22;1320;48.128;11.592;2023-04-16T08:11:48;8.60;99.90
2621;DHT22;1320;48.128;11.592;2023-04-16T08:14:15;8.60;99.90
2621;DHT22;1320;48.128;11.592;2023-04-16T08:16:41;8.60;99.90
2621;DHT22;1320;48.128;11.592;2023-04-16T08:19:07;8.70;99.90
2621;DHT22;1320;48.128;11.592;2023-04-16T08:21:33;8.80;99.90
2621;DHT22;1320;48.128;11.592;2023-04-16T08:23:59;8.90;99.90
2621;DHT22;1320;48.128;11.592;2023-04-16T08:26:24;9.00;99.90
2621;DHT22;1320;48.128;11.592;2023-04-16T08:28:50;9.00;99.90
2621;DHT22;1320;48.128;11.592;2023-04-16T08:31:16;9.00;99.90
2621;DHT22;1320;48.128;11.592;2023-04-16T08:33:41;9.10;99.90
2621;DHT22;1320;48.128;11.592;2023-04-16T08:36:08;9.10;99.90
2621;DHT22;1320;48.128;11.592;2023-04-16T08:38:33;9.10;99.90
2621;DHT22;1320;48.128;11.592;2023-04-16T08:41:02;9.20;99.90
2621;DHT22;1320;48.128;11.592;2023-04-16T08:43:33;9.20;99.90
2621;DHT22;1320;48.128;11.592;2023-04-16T08:46:02;9.30;99.90
2621;DHT22;1320;48.128;11.592;2023-04-16T08:48:32;9.40;99.90
2621;DHT22;1320;48.128;11.592;2023-04-16T08:51:00;9.50;99.90
2621;DHT22;1320;48.128;11.592;2023-04-16T08:53:38;9.60;99.90
2621;DHT22;1320;48.128;11.592;2023-04-16T08:56:08;9.70;99.90
2621;DHT22;1320;48.128;11.592;2023-04-16T08:58:36;9.80;99.90
2621;DHT22;1320;48.128;11.592;2023-04-16T09:01:03;9.90;99.90
2621;DHT22;1320;48.128;11.592;2023-04-16T09:06:51;10.00;99.90
2621;DHT22;1320;48.128;11.592;2023-04-16T09:12:41;10.20;99.90
2621;DHT22;1320;48.128;11.592;2023-04-16T09:15:09;10.30;99.90
2621;DHT22;1320;48.128;11.592;2023-04-16T09:17:35;10.40;99.90
2621;DHT22;1320;48.128;11.592;2023-04-16T09:20:02;10.50;99.90
2621;DHT22;1320;48.128;11.592;2023-04-16T09:22:30;10.60;99.90
2621;DHT22;1320;48.128;11.592;2023-04-16T09:24:56;10.70;99.90
2621;DHT22;1320;48.128;11.592;2023-04-16T09:27:22;10.70;99.90
2621;DHT22;1320;48.128;11.592;2023-04-16T09:29:48;10.80;99.90
2621;DHT22;1320;48.128;11.592;2023-04-16T09:32:14;11.00;99.90
2621;DHT22;1320;48.128;11.592;2023-04-16T09:34:59;11.20;99.90
2621;DHT22;1320;48.128;11.592;2023-04-16T09:37:26;11.30;99.90
2621;DHT22;1320;48.128;11.592;2023-04-16T09:39:59;11.40;99.90
2621;DHT22;1320;48.128;11.592;2023-04-16T09:42:29;11.40;99.90
2621;DHT22;1320;48.128;11.592;2023-04-16T09:44:56;11.40;99.90
2621;DHT22;1320;48.128;11.592;2023-04-16T09:47:24;11.40;99.90
2621;DHT22;1320;48.128;11.592;2023-04-16T09:49:50;11.30;99.90
2621;DHT22;1320;48.128;11.592;2023-04-16T09:52:21;11.30;99.90
2621;DHT22;1320;48.128;11.592;2023-04-16T09:54:52;11.40;99.90
2621;DHT22;1320;48.128;11.592;2023-04-16T09:57:21;11.40;99.90
2621;DHT22;1320;48.128;11.592;2023-04-16T09:59:52;11.40;99.90
2621;DHT22;1320;48.128;11.592;2023-04-16T10:02:17;11.50;99.90
2621;DHT22;1320;48.128;11.592;2023-04-16T10:04:45;11.60;99.90
2621;DHT22;1320;48.128;11.592;2023-04-16T10:07:11;11.70;99.90
2621;DHT22;1320;48.128;11.592;2023-04-16T10:09:38;11.70;99.90
2621;DHT22;1320;48.128;11.592;2023-04-16T10:12:04;11.70;99.90
2621;DHT22;1320;48.128;11.592;2023-04-16T10:17:53;11.60;99.90
2621;DHT22;1320;48.128;11.592;2023-04-16T10:20:20;11.60;99.90
2621;DHT22;1320;48.128;11.592;2023-04-16T10:22:47;11.70;99.90
2621;DHT22;1320;48.128;11.592;2023-04-16T10:25:13;11.80;99.90
2621;DHT22;1320;48.128;11.592;2023-04-16T10:27:39;11.80;99.90
2621;DHT22;1320;48.128;11.592;2023-04-16T10:30:07;11.90;99.90
2621;DHT22;1320;48.128;11.592;2023-04-16T10:32:33;11.90;99.90
2621;DHT22;1320;48.128;11.592;2023-04-16T10:35:00;11.90;99.90
2621;DHT22;1320;48.128;11.592;2023-04-16T10:37:30;11.90;99.90
2621;DHT22;1320;48.128;11.592;2023-04-16T10:39:57;11.90;99.90
2621;DHT22;1320;48.128;11.592;2023-04-16T10:42:24;11.90;99.90
2621;DHT22;1320;48.128;11.592;2023-04-16T10:44:50;11.90;99.90
2621;DHT22;1320;48.128;11.592;2023-04-16T10:47:16;11.80;99.90
2621;DHT22;1320;48.128;11.592;2023-04-16T10:49:42;11.70;99.90
2621;DHT22;1320;48.128;11.592;2023-04-16T10:52:11;11.60;99.90
2621;DHT22;1320;48.128;11.592;2023-04-16T10:58:00;11.50;99.90
2621;DHT22;1320;48.128;11.592;2023-04-16T11:03:48;11.40;99.90
2621;DHT22;1320;48.128;11.592;2023-04-16T11:06:15;11.60;99.90
2621;DHT22;1320;48.128;11.592;2023-04-16T11:08:44;11.70;99.90
2621;DHT22;1320;48.128;11.592;2023-04-16T11:11:11;11.80;99.90
2621;DHT22;1320;48.128;11.592;2023-04-16T11:13:37;11.90;99.90
2621;DHT22;1320;48.128;11.592;2023-04-16T11:16:03;12.00;99.90
2621;DHT22;1320;48.128;11.592;2023-04-16T11:18:30;11.90;99.90
2621;DHT22;1320;48.128;11.592;2023-04-16T11:20:56;11.90;99.90
2621;DHT22;1320;48.128;11.592;2023-04-16T11:23:21;12.00;99.90
2621;DHT22;1320;48.128;11.592;2023-04-16T11:25:47;12.00;99.90
2621;DHT22;1320;48.128;11.592;2023-04-16T11:28:16;12.00;99.90
2621;DHT22;1320;48.128;11.592;2023-04-16T11:30:41;12.00;99.90
2621;DHT22;1320;48.128;11.592;2023-04-16T11:33:08;12.00;99.90
2621;DHT22;1320;48.128;11.592;2023-04-16T11:35:36;12.10;99.90
2621;DHT22;1320;48.128;11.592;2023-04-16T11:38:03;12.10;99.90
2621;DHT22;1320;48.128;11.592;2023-04-16T11:40:32;12.00;99.90
2621;DHT22;1320;48.128;11.592;2023-04-16T11:43:14;12.00;99.90
2621;DHT22;1320;48.128;11.592;2023-04-16T11:45:55;11.90;99.90
2621;DHT22;1320;48.128;11.592;2023-04-16T11:48:20;11.90;99.90
2621;DHT22;1320;48.128;11.592;2023-04-16T11:50:56;12.00;99.90
2621;DHT22;1320;48.128;11.592;2023-04-16T11:53:23;11.90;99.90
2621;DHT22;1320;48.128;11.592;2023-04-16T11:55:48;11.90;99.90
2621;DHT22;1320;48.128;11.592;2023-04-16T11:58:14;11.80;99.90
2621;DHT22;1320;48.128;11.592;2023-04-16T12:00:41;11.90;99.90
2621;DHT22;1320;48.128;11.592;2023-04-16T12:03:07;11.80;99.90
2621;DHT22;1320;48.128;11.592;2023-04-16T12:05:37;11.90;99.90
2621;DHT22;1320;48.128;11.592;2023-04-16T12:08:08;11.90;99.90
2621;DHT22;1320;48.128;11.592;2023-04-16T12:10:36;12.00;99.90
2621;DHT22;1320;48.128;11.592;2023-04-16T12:13:16;12.00;99.90
2621;DHT22;1320;48.128;11.592;2023-04-16T12:18:14;12.10;99.90
2621;DHT22;1320;48.128;11.592;2023-04-16T12:20:41;12.10;99.90
2621;DHT22;1320;48.128;11.592;2023-04-16T12:23:07;12.00;99.90
2621;DHT22;1320;48.128;11.592;2023-04-16T12:25:33;12.00;99.90
2621;DHT22;1320;48.128;11.592;2023-04-16T12:27:59;12.00;99.90
2621;DHT22;1320;48.128;11.592;2023-04-16T12:30:25;12.00;99.90
2621;DHT22;1320;48.128;11.592;2023-04-16T12:33:14;12.00;99.90
2621;DHT22;1320;48.128;11.592;2023-04-16T12:35:40;12.10;99.90
2621;DHT22;1320;48.128;11.592;2023-04-16T12:38:06;12.20;99.90
2621;DHT22;1320;48.128;11.592;2023-04-16T12:40:33;12.20;99.90
2621;DHT22;1320;48.128;11.592;2023-04-16T12:42:58;12.30;99.90
2621;DHT22;1320;48.128;11.592;2023-04-16T12:45:24;12.30;99.90
2621;DHT22;1320;48.128;11.592;2023-04-16T12:47:50;12.30;99.90
2621;DHT22;1320;48.128;11.592;2023-04-16T12:50:16;12.20;99.90
2621;DHT22;1320;48.128;11.592;2023-04-16T12:52:41;12.20;99.90
2621;DHT22;1320;48.128;11.592;2023-04-16T12:55:08;12.20;99.90
2621;DHT22;1320;48.128;11.592;2023-04-16T12:57:33;12.10;99.90
2621;DHT22;1320;48.128;11.592;2023-04-16T12:59:59;12.00;99.90
2621;DHT22;1320;48.128;11.592;2023-04-16T13:02:25;11.90;99.90
2621;DHT22;1320;48.128;11.592;2023-04-16T13:04:53;11.80;99.90
2621;DHT22;1320;48.128;11.592;2023-04-16T13:07:19;11.80;99.90
2621;DHT22;1320;48.128;11.592;2023-04-16T13:09:45;11.70;99.90
2621;DHT22;1320;48.128;11.592;2023-04-16T13:12:11;11.70;99.90
2621;DHT22;1320;48.128;11.592;2023-04-16T13:14:37;11.60;99.90
2621;DHT22;1320;48.128;11.592;2023-04-16T13:17:03;11.60;99.90
2621;DHT22;1320;48.128;11.592;2023-04-16T13:19:29;11.40;99.90
2621;DHT22;1320;48.128;11.592;2023-04-16T13:21:55;11.40;99.90
2621;DHT22;1320;48.128;11.592;2023-04-16T13:24:21;11.30;99.90
2621;DHT22;1320;48.128;11.592;2023-04-16T13:26:49;11.30;99.90
2621;DHT22;1320;48.128;11.592;2023-04-16T13:29:16;11.20;99.90
2621;DHT22;1320;48.128;11.592;2023-04-16T13:31:42;11.20;99.90
2621;DHT22;1320;48.128;11.592;2023-04-16T13:37:29;11.10;99.90
2621;DHT22;1320;48.128;11.592;2023-04-16T13:39:55;11.10;99.90
2621;DHT22;1320;48.128;11.592;2023-04-16T13:42:21;11.10;99.90
2621;DHT22;1320;48.128;11.592;2023-04-16T13:48:08;11.10;99.90
2621;DHT22;1320;48.128;11.592;2023-04-16T13:50:34;11.20;99.90
2621;DHT22;1320;48.128;11.592;2023-04-16T13:53:00;11.20;99.90
2621;DHT22;1320;48.128;11.592;2023-04-16T13:55:26;11.10;99.90
2621;DHT22;1320;48.128;11.592;2023-04-16T13:57:52;11.10;99.90
2621;DHT22;1320;48.128;11.592;2023-04-16T14:00:18;11.10;99.90
2621;DHT22;1320;48.128;11.592;2023-04-16T14:02:44;11.10;99.90
2621;DHT22;1320;48.128;11.592;2023-04-16T14:05:10;11.10;99.90
2621;DHT22;1320;48.128;11.592;2023-04-16T14:07:36;11.20;99.90
2621;DHT22;1320;48.128;11.592;2023-04-16T14:10:02;11.30;99.90
2621;DHT22;1320;48.128;11.592;2023-04-16T14:12:28;11.30;99.90
2621;DHT22;1320;48.128;11.592;2023-04-16T14:14:53;11.40;99.90
2621;DHT22;1320;48.128;11.592;2023-04-16T14:17:19;11.50;99.90
2621;DHT22;1320;48.128;11.592;2023-04-16T14:19:45;11.50;99.90
2621;DHT22;1320;48.128;11.592;2023-04-16T14:22:11;11.40;99.90
2621;DHT22;1320;48.128;11.592;2023-04-16T14:24:36;11.40;99.90
2621;DHT22;1320;48.128;11.592;2023-04-16T14:27:02;11.40;99.90
2621;DHT22;1320;48.128;11.592;2023-04-16T14:29:27;11.40;99.90
2621;DHT22;1320;48.128;11.592;2023-04-16T14:31:53;11.40;99.90
2621;DHT22;1320;48.128;11.592;2023-04-16T14:34:19;11.40;99.90
2621;DHT22;1320;48.128;11.592;2023-04-16T14:36:44;11.40;99.90
2621;DHT22;1320;48.128;11.592;2023-04-16T14:39:10;11.50;99.90
2621;DHT22;1320;48.128;11.592;2023-04-16T14:41:36;11.50;99.90
2621;DHT22;1320;48.128;11.592;2023-04-16T14:44:01;11.60;99.90
2621;DHT22;1320;48.128;11.592;2023-04-16T14:46:28;11.60;99.90
2621;DHT22;1320;48.128;11.592;2023-04-16T14:48:54;11.60;99.90
2621;DHT22;1320;48.128;11.592;2023-04-16T14:51:20;11.70;99.90
2621;DHT22;1320;48.128;11.592;2023-04-16T14:53:46;11.70;99.90
2621;DHT22;1320;48.128;11.592;2023-04-16T14:56:12;11.70;99.90
2621;DHT22;1320;48.128;11.592;2023-04-16T14:58:38;11.70;99.90
2621;DHT22;1320;48.128;11.592;2023-04-16T15:01:04;11.60;99.90
2621;DHT22;1320;48.128;11.592;2023-04-16T15:06:52;11.60;99.90
2621;DHT22;1320;48.128;11.592;2023-04-16T15:09:18;11.40;99.90
2621;DHT22;1320;48.128;11.592;2023-04-16T15:11:43;11.30;99.90
2621;DHT22;1320;48.128;11.592;2023-04-16T15:17:32;11.30;99.90
2621;DHT22;1320;48.128;11.592;2023-04-16T15:19:58;11.20;99.90
2621;DHT22;1320;48.128;11.592;2023-04-16T15:22:23;11.20;99.90
2621;DHT22;1320;48.128;11.592;2023-04-16T15:24:49;11.20;99.90
2621;DHT22;1320;48.128;11.592;2023-04-16T15:27:16;11.20;99.90
2621;DHT22;1320;48.128;11.592;2023-04-16T15:29:42;11.10;99.90
2621;DHT22;1320;48.128;11.592;2023-04-16T15:32:11;11.10;99.90
2621;DHT22;1320;48.128;11.592;2023-04-16T15:34:37;11.10;99.90
2621;DHT22;1320;48.128;11.592;2023-04-16T15:37:02;11.10;99.90
2621;DHT22;1320;48.128;11.592;2023-04-16T15:39:30;11.10;99.90
2621;DHT22;1320;48.128;11.592;2023-04-16T15:41:56;11.10;99.90
2621;DHT22;1320;48.128;11.592;2023-04-16T15:44:22;11.00;99.90
2621;DHT22;1320;48.128;11.592;2023-04-16T15:46:48;11.00;99.90
2621;DHT22;1320;48.128;11.592;2023-04-16T15:49:13;10.90;99.90
2621;DHT22;1320;48.128;11.592;2023-04-16T15:51:39;10.90;99.90
2621;DHT22;1320;48.128;11.592;2023-04-16T15:54:05;10.90;99.90
2621;DHT22;1320;48.128;11.592;2023-04-16T15:56:31;10.90;99.90
2621;DHT22;1320;48.128;11.592;2023-04-16T15:58:57;11.00;99.90
2621;DHT22;1320;48.128;11.592;2023-04-16T16:01:23;11.00;99.90
2621;DHT22;1320;48.128;11.592;2023-04-16T16:03:48;11.10;99.90
2621;DHT22;1320;48.128;11.592;2023-04-16T16:06:14;11.20;99.90
2621;DHT22;1320;48.128;11.592;2023-04-16T16:08:42;11.20;99.90
2621;DHT22;1320;48.128;11.592;2023-04-16T16:11:08;11.20;99.90
2621;DHT22;1320;48.128;11.592;2023-04-16T16:13:34;11.20;99.90
2621;DHT22;1320;48.128;11.592;2023-04-16T16:16:01;11.20;99.90
2621;DHT22;1320;48.128;11.592;2023-04-16T16:18:28;11.10;99.90
2621;DHT22;1320;48.128;11.592;2023-04-16T16:20:57;11.00;99.90
2621;DHT22;1320;48.128;11.592;2023-04-16T16:23:23;11.00;99.90
2621;DHT22;1320;48.128;11.592;2023-04-16T16:25:50;11.00;99.90
2621;DHT22;1320;48.128;11.592;2023-04-16T16:28:16;11.00;99.90
2621;DHT22;1320;48.128;11.592;2023-04-16T16:30:42;11.00;99.90
2621;DHT22;1320;48.128;11.592;2023-04-16T16:33:08;11.00;99.90
2621;DHT22;1320;48.128;11.592;2023-04-16T16:35:33;11.00;99.90
2621;DHT22;1320;48.128;11.592;2023-04-16T16:37:59;11.00;99.90
2621;DHT22;1320;48.128;11.592;2023-04-16T16:40:26;11.00;99.90
2621;DHT22;1320;48.128;11.592;2023-04-16T16:42:52;11.00;99.90
2621;DHT22;1320;48.128;11.592;2023-04-16T16:45:18;11.00;99.90